createdAt,value
2022-10-18T00:02:25.798Z,10.02
2022-10-18T00:04:52.372Z,9.99
2022-10-18T00:07:18.986Z,9.97
2022-10-18T00:09:45.977Z,9.94
2022-10-18T00:12:12.625Z,9.90
2022-10-18T00:14:39.266Z,9.89
2022-10-18T00:17:05.860Z,9.84
2022-10-18T00:19:32.813Z,9.81
2022-10-18T00:21:59.394Z,9.76
2022-10-18T00:24:26.190Z,9.74
2022-10-18T00:26:52.741Z,9.73
2022-10-18T00:29:19.347Z,9.72
2022-10-18T00:31:46.141Z,9.72
2022-10-18T00:34:15.699Z,9.71
2022-10-18T00:36:43.763Z,9.70
2022-10-18T00:39:16.648Z,9.69
2022-10-18T00:41:43.949Z,9.70
2022-10-18T00:46:48.804Z,9.71
2022-10-18T00:49:21.054Z,9.69
2022-10-18T00:51:53.593Z,9.68
2022-10-18T00:54:20.948Z,9.66
2022-10-18T00:56:47.726Z,9.65
2022-10-18T00:59:16.059Z,9.64
2022-10-18T01:01:43.246Z,9.62
2022-10-18T01:04:10.099Z,9.60
2022-10-18T01:17:27.514Z,9.41
2022-10-18T01:20:34.064Z,9.32
2022-10-18T01:23:09.300Z,9.31
2022-10-18T01:25:48.222Z,9.31
2022-10-18T01:31:21.512Z,9.26
2022-10-18T01:34:09.542Z,9.20
2022-10-18T01:36:40.640Z,9.23
2022-10-18T01:39:12.503Z,9.22
2022-10-18T01:41:43.373Z,9.21
2022-10-18T01:44:18.594Z,9.20
2022-10-18T01:46:47.042Z,9.19
2022-10-18T01:49:14.052Z,9.18
2022-10-18T01:51:40.689Z,9.16
2022-10-18T01:54:07.334Z,9.13
2022-10-18T02:04:54.406Z,9.02
2022-10-18T02:10:08.283Z,8.89
2022-10-18T02:12:37.180Z,8.87
2022-10-18T02:15:06.115Z,8.84
2022-10-18T02:17:33.444Z,8.78
2022-10-18T02:20:02.501Z,8.75
2022-10-18T02:22:33.048Z,8.69
2022-10-18T02:25:05.682Z,8.65
2022-10-18T02:27:32.477Z,8.59
2022-10-18T02:29:59.182Z,8.56
2022-10-18T02:35:25.187Z,8.47
2022-10-18T02:37:54.006Z,8.44
2022-10-18T02:40:21.063Z,8.40
2022-10-18T02:42:50.690Z,8.39
2022-10-18T02:45:17.700Z,8.36
2022-10-18T02:47:44.600Z,8.33
2022-10-18T02:50:11.474Z,8.32
2022-10-18T02:52:38.211Z,8.30
2022-10-18T02:55:06.010Z,8.27
2022-10-18T02:57:32.863Z,8.23
2022-10-18T02:59:59.900Z,8.21
2022-10-18T03:02:26.616Z,8.19
2022-10-18T03:04:53.209Z,8.17
2022-10-18T03:07:19.712Z,8.16
2022-10-18T03:09:46.294Z,8.17
2022-10-18T03:12:12.915Z,8.16
2022-10-18T03:14:39.464Z,8.17
2022-10-18T03:17:06.110Z,8.17
2022-10-18T03:19:32.774Z,8.17
2022-10-18T03:21:59.309Z,8.18
2022-10-18T03:24:26.052Z,8.17
2022-10-18T03:26:52.743Z,8.14
2022-10-18T03:29:19.334Z,8.14
2022-10-18T03:31:45.995Z,8.12
2022-10-18T03:34:12.616Z,8.12
2022-10-18T03:36:41.385Z,8.12
2022-10-18T03:39:08.014Z,8.07
2022-10-18T03:41:34.569Z,8.03
2022-10-18T03:44:01.090Z,8.01
2022-10-18T03:46:27.674Z,7.97
2022-10-18T03:48:54.270Z,7.97
2022-10-18T03:51:20.892Z,7.95
2022-10-18T03:53:47.477Z,7.92
2022-10-18T03:56:14.483Z,7.89
2022-10-18T03:58:41.020Z,7.85
2022-10-18T04:01:07.573Z,7.82
2022-10-18T04:03:34.141Z,7.81
2022-10-18T04:06:00.976Z,7.81
2022-10-18T04:08:27.538Z,7.83
2022-10-18T04:10:54.158Z,7.82
2022-10-18T04:13:20.764Z,7.82
2022-10-18T04:15:47.292Z,7.81
2022-10-18T04:18:13.878Z,7.79
2022-10-18T04:20:40.616Z,7.78
2022-10-18T04:23:07.451Z,7.77
2022-10-18T04:25:34.128Z,7.75
2022-10-18T04:28:00.831Z,7.74
2022-10-18T04:30:27.534Z,7.75
2022-10-18T04:32:54.142Z,7.78
2022-10-18T04:35:24.609Z,7.79
2022-10-18T04:37:51.294Z,7.81
2022-10-18T04:40:18.014Z,7.80
2022-10-18T04:42:44.630Z,7.79
2022-10-18T04:45:11.313Z,7.78
2022-10-18T04:47:37.874Z,7.78
2022-10-18T04:50:05.265Z,7.77
2022-10-18T04:52:31.868Z,7.77
2022-10-18T04:54:58.441Z,7.77
2022-10-18T04:57:25.060Z,7.77
2022-10-18T04:59:51.587Z,7.79
2022-10-18T05:02:18.436Z,7.77
2022-10-18T05:04:44.997Z,7.78
2022-10-18T05:07:11.604Z,7.76
2022-10-18T05:09:38.176Z,7.75
2022-10-18T05:12:05.005Z,7.73
2022-10-18T05:14:31.634Z,7.71
2022-10-18T05:16:58.156Z,7.70
2022-10-18T05:19:24.823Z,7.69
2022-10-18T05:21:51.483Z,7.67
2022-10-18T05:24:18.147Z,7.66
2022-10-18T05:26:44.894Z,7.68
2022-10-18T05:29:11.730Z,7.68
2022-10-18T05:31:38.547Z,7.70
2022-10-18T05:34:05.174Z,7.71
2022-10-18T05:36:31.770Z,7.71
2022-10-18T05:39:01.009Z,7.72
2022-10-18T05:41:31.292Z,7.75
2022-10-18T05:43:58.209Z,7.77
2022-10-18T05:46:25.385Z,7.78
2022-10-18T05:48:52.127Z,7.77
2022-10-18T05:51:19.068Z,7.77
2022-10-18T05:53:45.893Z,7.75
2022-10-18T05:56:12.513Z,7.71
2022-10-18T05:58:39.854Z,7.70
2022-10-18T06:01:07.322Z,7.68
2022-10-18T06:03:34.389Z,7.65
2022-10-18T06:06:07.170Z,7.61
2022-10-18T06:08:34.422Z,7.56
2022-10-18T06:11:07.609Z,7.52
2022-10-18T06:13:34.356Z,7.52
2022-10-18T06:16:00.990Z,7.53
2022-10-18T06:18:27.549Z,7.52
2022-10-18T06:20:58.847Z,7.51
2022-10-18T06:23:28.021Z,7.49
2022-10-18T06:25:59.161Z,7.46
2022-10-18T06:28:26.198Z,7.45
2022-10-18T06:30:52.790Z,7.43
2022-10-18T06:33:19.339Z,7.40
2022-10-18T06:35:55.218Z,7.39
2022-10-18T06:38:21.948Z,7.40
2022-10-18T06:40:48.818Z,7.40
2022-10-18T06:43:21.096Z,7.36
2022-10-18T06:45:48.584Z,7.25
2022-10-18T06:48:15.841Z,7.13
2022-10-18T06:50:42.995Z,7.05
2022-10-18T06:53:09.775Z,7.00
2022-10-18T06:55:36.596Z,6.97
2022-10-18T06:58:03.260Z,6.93
2022-10-18T07:00:30.141Z,6.93
2022-10-18T07:02:58.296Z,6.95
2022-10-18T07:05:25.082Z,6.98
2022-10-18T07:07:54.304Z,6.99
2022-10-18T07:10:23.850Z,7.02
2022-10-18T07:12:53.448Z,7.02
2022-10-18T07:15:24.243Z,6.98
2022-10-18T07:17:50.928Z,7.00
2022-10-18T07:20:17.566Z,7.04
2022-10-18T07:22:44.721Z,7.06
2022-10-18T07:25:11.934Z,7.11
2022-10-18T07:27:40.873Z,7.17
2022-10-18T07:30:09.832Z,7.26
2022-10-18T07:32:36.797Z,7.30
2022-10-18T07:35:04.255Z,7.37
2022-10-18T07:37:31.816Z,7.72
2022-10-18T07:39:58.562Z,8.36
2022-10-18T07:42:25.933Z,8.81
2022-10-18T07:44:52.556Z,9.08
2022-10-18T07:47:19.300Z,9.24
2022-10-18T07:49:45.982Z,9.28
2022-10-18T07:52:12.615Z,9.32
2022-10-18T07:54:39.237Z,9.43
2022-10-18T07:57:05.863Z,9.54
2022-10-18T07:59:32.478Z,9.66
2022-10-18T08:01:59.252Z,9.88
2022-10-18T08:04:25.862Z,10.00
2022-10-18T08:06:52.457Z,10.15
2022-10-18T08:09:19.030Z,10.32
2022-10-18T08:11:45.662Z,10.51
2022-10-18T08:14:12.196Z,10.88
2022-10-18T08:16:38.792Z,11.54
2022-10-18T08:19:05.492Z,12.16
2022-10-18T08:21:32.242Z,12.51
2022-10-18T08:23:58.862Z,12.76
2022-10-18T08:26:25.404Z,12.91
2022-10-18T08:28:58.379Z,13.05
2022-10-18T08:31:36.539Z,13.25
2022-10-18T08:34:03.297Z,13.74
2022-10-18T08:36:29.865Z,14.73
2022-10-18T08:38:56.439Z,15.80
2022-10-18T08:44:21.112Z,17.75
2022-10-18T08:46:51.989Z,18.39
2022-10-18T08:49:26.741Z,19.23
2022-10-18T08:51:54.099Z,20.07
2022-10-18T08:57:01.565Z,21.74
2022-10-18T08:59:38.074Z,22.58
2022-10-18T09:02:35.305Z,23.46
2022-10-18T09:13:57.026Z,25.84
2022-10-18T09:22:04.962Z,27.34
2022-10-18T09:27:16.577Z,28.15
2022-10-18T09:35:24.427Z,29.20
2022-10-18T09:37:55.856Z,29.50
2022-10-18T09:40:28.233Z,29.70
2022-10-18T09:45:35.240Z,30.23
2022-10-18T09:48:24.073Z,30.59
2022-10-18T09:56:17.122Z,30.97
2022-10-18T10:01:25.394Z,31.21
2022-10-18T10:03:53.085Z,31.30
2022-10-18T10:11:40.332Z,31.59
2022-10-18T10:14:13.183Z,31.51
2022-10-18T10:16:49.269Z,31.46
2022-10-18T10:19:21.116Z,31.33
2022-10-18T10:21:50.484Z,31.27
2022-10-18T10:24:25.065Z,31.21
2022-10-18T10:27:16.876Z,31.17
2022-10-18T10:32:24.348Z,30.89
2022-10-18T10:34:51.762Z,30.62
2022-10-18T10:37:36.625Z,30.27
2022-10-18T10:40:19.066Z,29.69
2022-10-18T10:45:39.170Z,28.09
2022-10-18T10:48:16.757Z,26.87
2022-10-18T10:50:55.458Z,26.01
2022-10-18T10:53:44.379Z,25.36
2022-10-18T10:56:20.501Z,24.69
2022-10-18T10:58:47.975Z,24.24
2022-10-18T11:01:32.871Z,23.75
2022-10-18T11:04:02.865Z,23.53
2022-10-18T11:06:53.866Z,23.18
2022-10-18T11:09:28.927Z,23.02
2022-10-18T11:12:03.915Z,22.73
2022-10-18T11:14:37.730Z,22.49
2022-10-18T11:22:26.171Z,21.78
2022-10-18T11:24:52.600Z,21.31
2022-10-18T11:30:35.034Z,20.98
2022-10-18T11:33:38.257Z,20.77
2022-10-18T11:39:21.259Z,20.44
2022-10-18T11:53:33.536Z,19.78
2022-10-18T11:56:30.691Z,19.69
2022-10-18T11:59:27.092Z,19.57
2022-10-18T12:04:49.030Z,19.40
2022-10-18T12:07:33.332Z,19.32
2022-10-18T12:10:01.621Z,19.23
2022-10-18T12:12:32.861Z,19.15
2022-10-18T12:15:03.889Z,19.10
2022-10-18T12:20:14.707Z,18.97
2022-10-18T12:25:25.207Z,18.82
2022-10-18T12:33:28.313Z,18.76
2022-10-18T12:38:40.985Z,18.57
2022-10-18T12:41:07.710Z,18.53
2022-10-18T12:43:38.591Z,18.49
2022-10-18T12:46:13.109Z,18.40
2022-10-18T12:48:45.663Z,18.40
2022-10-18T13:09:44.581Z,19.27
2022-10-18T13:15:27.715Z,19.46
2022-10-18T13:20:42.140Z,19.29
2022-10-18T13:26:12.903Z,18.82
2022-10-18T13:37:05.362Z,18.17
2022-10-18T13:39:33.129Z,18.08
2022-10-18T13:44:39.886Z,17.97
2022-10-18T13:50:22.239Z,17.86
2022-10-18T14:04:17.631Z,17.57
2022-10-18T14:06:46.930Z,17.55
2022-10-18T14:09:40.183Z,17.55
2022-10-18T14:12:49.958Z,17.43
2022-10-18T14:15:23.931Z,17.42
2022-10-18T14:17:59.128Z,17.41
2022-10-18T14:20:30.254Z,17.37
2022-10-18T14:23:23.071Z,17.29
2022-10-18T14:25:49.846Z,17.26
2022-10-18T14:28:21.706Z,17.24
2022-10-18T14:33:43.044Z,17.11
2022-10-18T14:36:15.645Z,17.14
2022-10-18T14:39:01.408Z,17.06
2022-10-18T14:47:13.074Z,16.93
2022-10-18T14:49:44.818Z,16.93
2022-10-18T14:52:16.299Z,16.85
2022-10-18T14:54:43.369Z,16.81
2022-10-18T14:57:19.319Z,16.74
2022-10-18T14:59:51.911Z,16.70
2022-10-18T15:02:24.196Z,16.62
2022-10-18T15:05:04.838Z,16.63
2022-10-18T15:07:32.740Z,16.62
2022-10-18T15:10:02.724Z,16.55
2022-10-18T15:12:40.901Z,16.42
2022-10-18T15:15:21.980Z,16.34
2022-10-18T15:17:49.497Z,16.26
2022-10-18T15:20:25.172Z,16.37
2022-10-18T15:22:52.942Z,16.34
2022-10-18T15:25:30.856Z,16.32
2022-10-18T15:28:00.152Z,16.24
2022-10-18T15:30:41.025Z,16.19
2022-10-18T15:33:10.048Z,16.17
2022-10-18T15:35:38.857Z,16.10
2022-10-18T15:38:32.747Z,16.02
2022-10-18T15:40:59.441Z,15.98
2022-10-18T15:46:06.735Z,15.86
2022-10-18T15:48:38.657Z,15.80
2022-10-18T15:51:23.971Z,15.72
2022-10-18T15:53:53.947Z,15.66
2022-10-18T15:56:38.313Z,15.52
2022-10-18T15:59:20.390Z,15.54
2022-10-18T16:01:47.102Z,15.50
2022-10-18T16:04:24.415Z,15.44
2022-10-18T16:06:51.245Z,15.42
2022-10-18T16:09:19.746Z,15.38
2022-10-18T16:11:47.298Z,15.33
2022-10-18T16:14:13.936Z,15.30
2022-10-18T16:16:40.611Z,15.28
2022-10-18T16:19:08.067Z,15.24
2022-10-18T16:21:37.065Z,15.20
2022-10-18T16:24:04.011Z,15.13
2022-10-18T16:26:31.104Z,15.10
2022-10-18T16:28:59.104Z,15.06
2022-10-18T16:31:29.726Z,14.99
2022-10-18T16:33:56.820Z,14.94
2022-10-18T16:36:27.103Z,14.86
2022-10-18T16:38:55.121Z,14.78
2022-10-18T16:41:22.650Z,14.73
2022-10-18T16:43:50.478Z,14.69
2022-10-18T16:48:51.937Z,14.61
2022-10-18T16:51:18.733Z,14.56
2022-10-18T16:53:45.955Z,14.52
2022-10-18T16:56:17.768Z,14.48
2022-10-18T16:58:45.262Z,14.42
2022-10-18T17:01:14.186Z,14.38
2022-10-18T17:03:41.181Z,14.32
2022-10-18T17:06:15.510Z,14.24
2022-10-18T17:08:42.261Z,14.21
2022-10-18T17:11:10.585Z,14.16
2022-10-18T17:13:37.461Z,14.10
2022-10-18T17:16:04.667Z,14.05
2022-10-18T17:18:31.610Z,14.02
2022-10-18T17:21:02.671Z,13.97
2022-10-18T17:23:30.705Z,13.92
2022-10-18T17:26:05.442Z,13.83
2022-10-18T17:28:41.729Z,13.77
2022-10-18T17:31:08.436Z,13.72
2022-10-18T17:33:35.515Z,13.67
2022-10-18T17:36:02.298Z,13.61
2022-10-18T17:38:28.930Z,13.56
2022-10-18T17:40:55.525Z,13.48
2022-10-18T17:43:22.147Z,13.45
2022-10-18T17:45:51.011Z,13.42
2022-10-18T17:48:17.896Z,13.37
2022-10-18T17:50:44.878Z,13.34
2022-10-18T17:53:13.104Z,13.31
2022-10-18T17:55:40.404Z,13.28
2022-10-18T17:58:07.012Z,13.22
2022-10-18T18:00:33.686Z,13.18
2022-10-18T18:03:01.077Z,13.14
2022-10-18T18:05:33.349Z,13.07
2022-10-18T18:08:03.809Z,13.03
2022-10-18T18:10:33.682Z,12.95
2022-10-18T18:13:01.309Z,12.92
2022-10-18T18:15:28.053Z,12.87
2022-10-18T18:17:58.323Z,12.79
2022-10-18T18:20:26.028Z,12.75
2022-10-18T18:22:52.707Z,12.70
2022-10-18T18:25:19.373Z,12.63
2022-10-18T18:27:46.046Z,12.59
2022-10-18T18:30:12.940Z,12.54
2022-10-18T18:32:39.531Z,12.46
2022-10-18T18:35:06.333Z,12.40
2022-10-18T18:37:32.868Z,12.32
2022-10-18T18:39:59.417Z,12.29
2022-10-18T18:42:25.971Z,12.26
2022-10-18T18:44:52.577Z,12.19
2022-10-18T18:47:21.753Z,12.15
2022-10-18T18:49:48.834Z,12.11
2022-10-18T18:52:15.698Z,12.07
2022-10-18T18:54:42.254Z,12.03
2022-10-18T18:57:08.874Z,11.94
2022-10-18T18:59:35.551Z,11.91
2022-10-18T19:02:02.104Z,11.88
2022-10-18T19:04:29.190Z,11.85
2022-10-18T19:06:55.810Z,11.78
2022-10-18T19:09:22.942Z,11.75
2022-10-18T19:11:53.051Z,11.73
2022-10-18T19:19:24.274Z,11.61
2022-10-18T19:24:30.260Z,11.52
2022-10-18T19:27:00.965Z,11.47
2022-10-18T19:29:30.447Z,11.43
2022-10-18T19:32:00.046Z,11.40
2022-10-18T19:34:29.070Z,11.38
2022-10-18T19:36:56.398Z,11.34
2022-10-18T19:39:25.558Z,11.31
2022-10-18T19:41:55.291Z,11.24
2022-10-18T19:44:23.807Z,11.19
2022-10-18T19:46:51.229Z,11.15
2022-10-18T19:49:17.943Z,11.14
2022-10-18T19:51:44.905Z,11.10
2022-10-18T19:54:12.545Z,11.08
2022-10-18T19:56:39.504Z,11.04
2022-10-18T19:59:06.050Z,10.98
2022-10-18T20:01:32.860Z,10.93
2022-10-18T20:03:59.620Z,10.90
2022-10-18T20:06:26.571Z,10.85
2022-10-18T20:08:53.339Z,10.80
2022-10-18T20:11:23.386Z,10.78
2022-10-18T20:13:50.420Z,10.60
2022-10-18T20:16:20.639Z,10.66
2022-10-18T20:18:48.969Z,10.66
2022-10-18T20:21:17.103Z,10.63
2022-10-18T20:23:44.578Z,10.61
2022-10-18T20:26:20.511Z,10.57
2022-10-18T20:28:56.687Z,10.55
2022-10-18T20:31:26.222Z,10.50
2022-10-18T20:33:58.736Z,10.46
2022-10-18T20:36:26.280Z,10.43
2022-10-18T20:38:53.624Z,10.43
2022-10-18T20:41:22.890Z,10.43
2022-10-18T20:43:55.787Z,10.41
2022-10-18T20:46:22.529Z,10.40
2022-10-18T20:48:50.377Z,10.40
2022-10-18T20:51:17.386Z,10.38
2022-10-18T20:53:44.224Z,10.36
2022-10-18T20:56:14.095Z,10.37
2022-10-18T20:58:42.657Z,10.34
2022-10-18T21:01:12.602Z,10.32
2022-10-18T21:03:41.758Z,10.28
2022-10-18T21:06:10.517Z,10.25
2022-10-18T21:08:38.002Z,10.25
2022-10-18T21:11:05.703Z,10.23
2022-10-18T21:13:32.892Z,10.22
2022-10-18T21:16:01.405Z,10.22
2022-10-18T21:18:30.134Z,10.22
2022-10-18T21:21:08.975Z,10.18
2022-10-18T21:23:35.628Z,10.19
2022-10-18T21:26:02.162Z,10.17
2022-10-18T21:28:28.896Z,10.17
2022-10-18T21:30:57.791Z,10.18
2022-10-18T21:33:24.398Z,10.19
2022-10-18T21:35:50.933Z,10.20
2022-10-18T21:38:17.529Z,10.22
2022-10-18T21:40:44.706Z,10.23
2022-10-18T21:43:11.883Z,10.24
2022-10-18T21:45:38.379Z,10.23
2022-10-18T21:48:05.238Z,10.26
2022-10-18T21:50:34.188Z,10.29
2022-10-18T21:53:00.847Z,10.27
2022-10-18T21:55:27.421Z,10.24
2022-10-18T21:57:54.009Z,10.24
2022-10-18T22:00:20.595Z,10.22
2022-10-18T22:02:47.225Z,10.21
2022-10-18T22:05:13.810Z,10.19
2022-10-18T22:07:40.396Z,10.18
2022-10-18T22:10:07.344Z,10.18
2022-10-18T22:12:33.965Z,10.16
2022-10-18T22:15:02.449Z,10.16
2022-10-18T22:17:28.993Z,10.18
2022-10-18T22:19:55.527Z,10.17
2022-10-18T22:22:23.553Z,10.19
2022-10-18T22:24:50.214Z,10.19
2022-10-18T22:27:16.887Z,10.19
2022-10-18T22:29:43.442Z,10.19
2022-10-18T22:32:10.061Z,10.19
2022-10-18T22:34:36.902Z,10.18
2022-10-18T22:37:03.536Z,10.21
2022-10-18T22:39:30.101Z,10.20
2022-10-18T22:41:57.382Z,10.23
2022-10-18T22:44:24.414Z,10.23
2022-10-18T22:46:50.977Z,10.24
2022-10-18T22:49:17.655Z,10.24
2022-10-18T22:51:44.353Z,10.25
2022-10-18T22:54:11.065Z,10.25
2022-10-18T22:56:37.695Z,10.24
2022-10-18T22:59:04.445Z,10.25
2022-10-18T23:01:30.981Z,10.25
2022-10-18T23:03:59.924Z,10.24
2022-10-18T23:06:31.672Z,10.25
2022-10-18T23:08:59.818Z,10.27
2022-10-18T23:11:27.637Z,10.27
2022-10-18T23:13:54.552Z,10.25
2022-10-18T23:16:21.414Z,10.23
2022-10-18T23:18:51.578Z,10.24
2022-10-18T23:21:19.150Z,10.22
2022-10-18T23:23:45.970Z,10.24
2022-10-18T23:26:15.261Z,10.26
2022-10-18T23:28:44.558Z,10.26
2022-10-18T23:31:14.665Z,10.28
2022-10-18T23:33:41.422Z,10.15
2022-10-18T23:36:09.162Z,10.23
2022-10-18T23:38:36.830Z,10.24
2022-10-18T23:41:04.478Z,10.25
2022-10-18T23:43:31.420Z,10.25
2022-10-18T23:45:58.020Z,10.27
2022-10-18T23:48:24.705Z,10.26
2022-10-18T23:50:51.564Z,10.26
2022-10-18T23:53:20.255Z,10.23
2022-10-18T23:55:52.157Z,10.20
2022-10-18T23:58:18.825Z,10.19
